sensor_id;sensor_type;location;lat;lon;timestamp;pressure;altitude;pressure_sealevel;temperature;humidity
71956;BME280;59829;50.562;6.258;2024-01-11T00:08:13;96761.38;;;4.58;55.61
71956;BME280;59829;50.562;6.258;2024-01-11T00:18:14;96765.63;;;4.57;55.66
71956;BME280;59829;50.562;6.258;2024-01-11T00:28:14;96752.19;;;4.55;55.53
71956;BME280;59829;50.562;6.258;2024-01-11T00:38:14;96753.91;;;4.54;55.25
71956;BME280;59829;50.562;6.258;2024-01-11T00:48:15;96758.22;;;4.52;55.24
71956;BME280;59829;50.562;6.258;2024-01-11T00:58:15;96774.34;;;4.51;55.27
71956;BME280;59829;50.562;6.258;2024-01-11T01:08:15;96773.44;;;4.52;54.88
71956;BME280;59829;50.562;6.258;2024-01-11T01:18:15;96776.88;;;4.51;55.08
71956;BME280;59829;50.562;6.258;2024-01-11T01:28:16;96777.69;;;4.52;54.89
71956;BME280;59829;50.562;6.258;2024-01-11T01:38:16;96776.97;;;4.48;54.86
71956;BME280;59829;50.562;6.258;2024-01-11T01:48:17;96796.44;;;4.48;54.69
71956;BME280;59829;50.562;6.258;2024-01-11T01:58:18;96800.63;;;4.49;54.73
71956;BME280;59829;50.562;6.258;2024-01-11T02:08:21;96803.16;;;4.49;54.59
71956;BME280;59829;50.562;6.258;2024-01-11T02:18:22;96798.16;;;4.47;54.59
71956;BME280;59829;50.562;6.258;2024-01-11T02:28:22;96806.03;;;4.41;54.47
71956;BME280;59829;50.562;6.258;2024-01-11T02:38:22;96802.59;;;4.42;54.34
71956;BME280;59829;50.562;6.258;2024-01-11T02:48:27;96799.16;;;4.43;54.22
71956;BME280;59829;50.562;6.258;2024-01-11T02:58:27;96801.63;;;4.45;54.33
71956;BME280;59829;50.562;6.258;2024-01-11T03:08:28;96801.63;;;4.45;54.27
71956;BME280;59829;50.562;6.258;2024-01-11T03:18:28;96804.19;;;4.45;54.30
71956;BME280;59829;50.562;6.258;2024-01-11T03:28:31;96794.84;;;4.45;54.23
71956;BME280;59829;50.562;6.258;2024-01-11T03:38:32;96795.63;;;4.47;54.31
71956;BME280;59829;50.562;6.258;2024-01-11T03:48:32;96775.31;;;4.47;54.14
71956;BME280;59829;50.562;6.258;2024-01-11T03:58:32;96779.63;;;4.45;54.17
71956;BME280;59829;50.562;6.258;2024-01-11T04:08:33;96777.09;;;4.45;54.14
71956;BME280;59829;50.562;6.258;2024-01-11T04:18:33;96791.50;;;4.45;54.06
71956;BME280;59829;50.562;6.258;2024-01-11T04:28:33;96791.56;;;4.43;54.19
71956;BME280;59829;50.562;6.258;2024-01-11T04:38:34;96804.25;;;4.43;54.20
71956;BME280;59829;50.562;6.258;2024-01-11T04:48:34;96807.66;;;4.42;54.14
71956;BME280;59829;50.562;6.258;2024-01-11T04:58:35;96810.31;;;4.39;54.15
71956;BME280;59829;50.562;6.258;2024-01-11T05:08:35;96804.38;;;4.40;53.95
71956;BME280;59829;50.562;6.258;2024-01-11T05:18:35;96807.66;;;4.42;53.98
71956;BME280;59829;50.562;6.258;2024-01-11T05:28:36;96808.63;;;4.40;54.02
71956;BME280;59829;50.562;6.258;2024-01-11T05:38:39;96823.00;;;4.39;54.15
71956;BME280;59829;50.562;6.258;2024-01-11T05:48:40;96855.22;;;4.37;53.97
71956;BME280;59829;50.562;6.258;2024-01-11T05:58:40;96867.03;;;4.38;54.14
71956;BME280;59829;50.562;6.258;2024-01-11T06:08:40;96872.91;;;4.39;53.85
71956;BME280;59829;50.562;6.258;2024-01-11T06:18:42;96874.63;;;4.38;53.72
71956;BME280;59829;50.562;6.258;2024-01-11T06:28:43;96889.09;;;4.36;54.03
71956;BME280;59829;50.562;6.258;2024-01-11T06:38:43;96904.31;;;4.36;53.79
71956;BME280;59829;50.562;6.258;2024-01-11T06:48:43;96910.22;;;4.37;54.01
71956;BME280;59829;50.562;6.258;2024-01-11T06:58:44;96905.97;;;4.37;53.90
71956;BME280;59829;50.562;6.258;2024-01-11T07:08:44;96899.25;;;4.36;53.96
71956;BME280;59829;50.562;6.258;2024-01-11T07:18:45;96915.38;;;4.34;53.72
71956;BME280;59829;50.562;6.258;2024-01-11T07:28:45;96923.03;;;4.32;53.60
71956;BME280;59829;50.562;6.258;2024-01-11T07:38:45;96932.38;;;4.32;53.75
71956;BME280;59829;50.562;6.258;2024-01-11T07:48:46;96923.03;;;4.32;53.93
71956;BME280;59829;50.562;6.258;2024-01-11T07:58:46;96912.91;;;4.32;53.74
71956;BME280;59829;50.562;6.258;2024-01-11T08:08:46;96920.56;;;4.31;53.76
71956;BME280;59829;50.562;6.258;2024-01-11T08:18:51;96916.31;;;4.31;53.55
71956;BME280;59829;50.562;6.258;2024-01-11T08:28:51;96916.31;;;4.31;53.51
71956;BME280;59829;50.562;6.258;2024-01-11T08:38:52;96929.75;;;4.33;53.41
71956;BME280;59829;50.562;6.258;2024-01-11T08:48:54;96935.63;;;4.35;53.70
71956;BME280;59829;50.562;6.258;2024-01-11T08:58:55;96944.78;;;4.39;53.50
71956;BME280;59829;50.562;6.258;2024-01-11T09:08:58;96940.47;;;4.41;53.55
71956;BME280;59829;50.562;6.258;2024-01-11T09:18:58;96952.91;;;4.47;53.77
71956;BME280;59829;50.562;6.258;2024-01-11T09:29:00;96968.81;;;4.52;53.97
71956;BME280;59829;50.562;6.258;2024-01-11T09:39:00;96960.19;;;4.57;54.02
71956;BME280;59829;50.562;6.258;2024-01-11T09:49:02;96972.66;;;4.63;54.22
71956;BME280;59829;50.562;6.258;2024-01-11T09:59:04;96982.69;;;4.66;54.35
71956;BME280;59829;50.562;6.258;2024-01-11T10:09:07;96994.28;;;4.73;54.47
71956;BME280;59829;50.562;6.258;2024-01-11T10:19:08;96995.81;;;4.77;54.66
71956;BME280;59829;50.562;6.258;2024-01-11T10:29:10;96990.47;;;4.83;54.91
71956;BME280;59829;50.562;6.258;2024-01-11T10:39:12;96981.91;;;4.87;55.15
71956;BME280;59829;50.562;6.258;2024-01-11T10:49:19;96985.31;;;4.86;55.40
71956;BME280;59829;50.562;6.258;2024-01-11T10:59:21;96980.88;;;4.91;55.59
71956;BME280;59829;50.562;6.258;2024-01-11T11:09:25;96986.59;;;4.96;55.77
71956;BME280;59829;50.562;6.258;2024-01-11T11:19:25;96988.03;;;5.03;55.91
71956;BME280;59829;50.562;6.258;2024-01-11T11:29:27;96992.03;;;5.09;55.98
71956;BME280;59829;50.562;6.258;2024-01-11T11:39:27;96979.97;;;5.14;56.21
71956;BME280;59829;50.562;6.258;2024-01-11T11:49:57;96983.97;;;5.20;56.40
71956;BME280;59829;50.562;6.258;2024-01-11T11:59:59;96985.53;;;5.24;56.46
71956;BME280;59829;50.562;6.258;2024-01-11T12:09:59;96988.72;;;5.29;56.60
71956;BME280;59829;50.562;6.258;2024-01-11T12:20:00;97007.13;;;5.34;56.85
71956;BME280;59829;50.562;6.258;2024-01-11T12:30:01;97003.56;;;5.38;56.91
71956;BME280;59829;50.562;6.258;2024-01-11T12:40:01;96999.97;;;5.43;56.79
71956;BME280;59829;50.562;6.258;2024-01-11T12:50:02;97003.91;;;5.51;56.76
71956;BME280;59829;50.562;6.258;2024-01-11T13:00:15;96988.44;;;5.57;56.81
71956;BME280;59829;50.562;6.258;2024-01-11T13:10:16;96987.28;;;5.64;56.87
71956;BME280;59829;50.562;6.258;2024-01-11T13:20:17;96965.09;;;5.67;56.86
71956;BME280;59829;50.562;6.258;2024-01-11T13:30:18;96969.94;;;5.73;56.97
71956;BME280;59829;50.562;6.258;2024-01-11T13:40:19;96982.38;;;5.80;56.91
71956;BME280;59829;50.562;6.258;2024-01-11T13:50:20;96994.84;;;5.86;57.04
71956;BME280;59829;50.562;6.258;2024-01-11T14:00:20;96996.28;;;5.93;56.96
71956;BME280;59829;50.562;6.258;2024-01-11T14:10:20;97001.09;;;5.99;56.89
71956;BME280;59829;50.562;6.258;2024-01-11T14:20:21;96994.22;;;6.01;56.82
71956;BME280;59829;50.562;6.258;2024-01-11T14:30:22;96998.41;;;6.02;56.86
71956;BME280;59829;50.562;6.258;2024-01-11T14:40:22;97000.97;;;6.02;56.92
71956;BME280;59829;50.562;6.258;2024-01-11T14:50:22;97010.31;;;6.01;57.02
71956;BME280;59829;50.562;6.258;2024-01-11T15:00:23;97006.94;;;6.01;56.99
71956;BME280;59829;50.562;6.258;2024-01-11T15:10:24;97006.81;;;6.04;57.18
71956;BME280;59829;50.562;6.258;2024-01-11T15:20:25;97017.72;;;6.06;57.07
71956;BME280;59829;50.562;6.258;2024-01-11T15:30:25;97010.25;;;6.03;57.22
71956;BME280;59829;50.562;6.258;2024-01-11T15:40:25;97010.31;;;6.01;57.20
71956;BME280;59829;50.562;6.258;2024-01-11T15:50:27;97013.88;;;5.97;57.33
71956;BME280;59829;50.562;6.258;2024-01-11T16:00:27;97027.50;;;5.96;57.40
71956;BME280;59829;50.562;6.258;2024-01-11T16:10:29;97035.19;;;5.95;57.48
71956;BME280;59829;50.562;6.258;2024-01-11T16:20:29;97039.50;;;5.93;57.60
71956;BME280;59829;50.562;6.258;2024-01-11T16:30:29;97052.31;;;5.90;57.79
71956;BME280;59829;50.562;6.258;2024-01-11T16:40:30;97060.06;;;5.87;57.69
71956;BME280;59829;50.562;6.258;2024-01-11T16:50:30;97060.13;;;5.85;57.75
71956;BME280;59829;50.562;6.258;2024-01-11T17:00:30;97074.69;;;5.82;57.94
71956;BME280;59829;50.562;6.258;2024-01-11T17:10:31;97081.56;;;5.80;57.79
71956;BME280;59829;50.562;6.258;2024-01-11T17:20:32;97080.03;;;5.75;57.91
71956;BME280;59829;50.562;6.258;2024-01-11T17:30:32;97070.75;;;5.74;57.87
71956;BME280;59829;50.562;6.258;2024-01-11T17:40:32;97073.38;;;5.71;57.86
71956;BME280;59829;50.562;6.258;2024-01-11T17:50:35;97082.78;;;5.69;57.97
71956;BME280;59829;50.562;6.258;2024-01-11T18:00:35;97073.53;;;5.68;57.89
71956;BME280;59829;50.562;6.258;2024-01-11T18:10:36;97068.44;;;5.68;57.86
71956;BME280;59829;50.562;6.258;2024-01-11T18:20:39;97060.94;;;5.65;57.76
71956;BME280;59829;50.562;6.258;2024-01-11T18:30:40;97077.06;;;5.64;57.98
71956;BME280;59829;50.562;6.258;2024-01-11T18:40:41;97084.75;;;5.63;57.78
71956;BME280;59829;50.562;6.258;2024-01-11T18:50:41;97083.13;;;5.62;57.72
71956;BME280;59829;50.562;6.258;2024-01-11T19:00:41;97076.44;;;5.59;57.82
71956;BME280;59829;50.562;6.258;2024-01-11T19:10:42;97063.84;;;5.56;57.89
71956;BME280;59829;50.562;6.258;2024-01-11T19:20:42;97077.44;;;5.55;57.63
71956;BME280;59829;50.562;6.258;2024-01-11T19:30:42;97079.09;;;5.56;57.50
71956;BME280;59829;50.562;6.258;2024-01-11T19:40:43;97094.34;;;5.56;57.52
71956;BME280;59829;50.562;6.258;2024-01-11T19:50:43;97112.19;;;5.55;57.65
71956;BME280;59829;50.562;6.258;2024-01-11T20:00:43;97128.31;;;5.54;57.47
71956;BME280;59829;50.562;6.258;2024-01-11T20:10:44;97128.38;;;5.52;57.31
71956;BME280;59829;50.562;6.258;2024-01-11T20:20:45;97114.84;;;5.52;57.09
71956;BME280;59829;50.562;6.258;2024-01-11T20:30:46;97109.81;;;5.50;57.22
71956;BME280;59829;50.562;6.258;2024-01-11T20:40:47;97091.22;;;5.50;57.06
71956;BME280;59829;50.562;6.258;2024-01-11T20:50:47;97104.75;;;5.50;57.09
71956;BME280;59829;50.562;6.258;2024-01-11T21:00:48;97102.97;;;5.52;57.18
71956;BME280;59829;50.562;6.258;2024-01-11T21:10:48;97101.19;;;5.54;57.23
71956;BME280;59829;50.562;6.258;2024-01-11T21:20:49;97098.63;;;5.56;57.30
71956;BME280;59829;50.562;6.258;2024-01-11T21:30:49;97096.00;;;5.57;57.43
71956;BME280;59829;50.562;6.258;2024-01-11T21:40:49;97097.66;;;5.58;57.66
71956;BME280;59829;50.562;6.258;2024-01-11T21:50:51;97097.53;;;5.61;57.83
71956;BME280;59829;50.562;6.258;2024-01-11T22:11:01;97085.53;;;5.65;58.22
71956;BME280;59829;50.562;6.258;2024-01-11T22:21:01;97092.19;;;5.67;58.47
71956;BME280;59829;50.562;6.258;2024-01-11T22:31:03;97090.41;;;5.69;58.62
71956;BME280;59829;50.562;6.258;2024-01-11T22:41:05;97094.53;;;5.73;58.94
71956;BME280;59829;50.562;6.258;2024-01-11T22:51:05;97099.47;;;5.77;59.09
71956;BME280;59829;50.562;6.258;2024-01-11T23:01:05;97100.25;;;5.79;59.38
71956;BME280;59829;50.562;6.258;2024-01-11T23:11:06;97093.38;;;5.81;59.62
71956;BME280;59829;50.562;6.258;2024-01-11T23:21:06;97086.50;;;5.83;59.68
71956;BME280;59829;50.562;6.258;2024-01-11T23:31:06;97099.09;;;5.86;60.05
71956;BME280;59829;50.562;6.258;2024-01-11T23:41:07;97082.94;;;5.87;60.26
71956;BME280;59829;50.562;6.258;2024-01-11T23:51:08;97071.00;;;5.89;60.52
